createdAt,value
2019-04-05T00:01:56.010Z,99.90
2019-04-05T00:04:22.807Z,99.90
2019-04-05T00:06:49.517Z,99.90
2019-04-05T00:09:16.822Z,99.90
2019-04-05T00:11:43.429Z,99.10
2019-04-05T00:14:10.457Z,98.50
2019-04-05T00:16:37.212Z,99.10
2019-04-05T00:19:04.173Z,98.30
2019-04-05T00:21:31.063Z,99.40
2019-04-05T00:23:57.777Z,99.80
2019-04-05T00:26:24.577Z,98.50
2019-04-05T00:28:51.867Z,97.50
2019-04-05T00:31:19.218Z,97.30
2019-04-05T00:33:45.911Z,97.20
2019-04-05T00:36:12.717Z,96.90
2019-04-05T00:38:40.622Z,96.90
2019-04-05T00:41:07.202Z,96.50
2019-04-05T00:43:34.098Z,96.10
2019-04-05T00:46:00.975Z,98.40
2019-04-05T00:48:27.814Z,99.70
2019-04-05T00:50:54.453Z,99.90
2019-04-05T00:53:21.384Z,99.90
2019-04-05T00:55:48.014Z,99.90
2019-04-05T00:58:14.593Z,99.90
2019-04-05T01:00:41.187Z,99.90
2019-04-05T01:03:07.798Z,99.90
2019-04-05T01:05:34.687Z,99.90
2019-04-05T01:08:01.323Z,99.60
2019-04-05T01:10:28.439Z,99.90
2019-04-05T01:12:55.060Z,99.90
2019-04-05T01:15:21.735Z,99.80
2019-04-05T01:17:48.325Z,99.90
2019-04-05T01:20:15.168Z,99.30
2019-04-05T01:22:41.820Z,99.90
2019-04-05T01:25:08.744Z,99.90
2019-04-05T01:27:39.597Z,99.90
2019-04-05T01:30:07.821Z,99.90
2019-04-05T01:32:38.189Z,99.90
2019-04-05T01:35:04.791Z,99.90
2019-04-05T01:37:34.160Z,99.80
2019-04-05T01:40:03.856Z,98.80
2019-04-05T01:42:37.008Z,98.70
2019-04-05T01:45:06.041Z,98.70
2019-04-05T01:47:37.047Z,98.40
2019-04-05T01:50:07.359Z,97.70
2019-04-05T01:52:34.753Z,98.00
2019-04-05T01:55:06.166Z,98.10
2019-04-05T01:57:34.058Z,97.90
2019-04-05T02:00:00.880Z,98.40
2019-04-05T02:02:28.972Z,98.30
2019-04-05T02:04:58.765Z,98.20
2019-04-05T02:07:25.939Z,98.50
2019-04-05T02:09:52.545Z,98.70
2019-04-05T02:12:19.376Z,98.30
2019-04-05T02:14:51.196Z,98.30
2019-04-05T02:17:22.635Z,99.90
2019-04-05T02:19:51.540Z,99.90
2019-04-05T02:22:18.551Z,99.60
2019-04-05T02:24:46.179Z,99.60
2019-04-05T02:27:15.777Z,99.90
2019-04-05T02:29:45.430Z,99.80
2019-04-05T02:32:13.033Z,99.80
2019-04-05T02:34:44.800Z,99.80
2019-04-05T02:37:17.851Z,98.70
2019-04-05T02:39:47.241Z,99.90
2019-04-05T02:42:14.638Z,99.90
2019-04-05T02:44:41.869Z,99.90
2019-04-05T02:47:09.506Z,99.90
2019-04-05T02:49:40.702Z,99.90
2019-04-05T02:52:10.093Z,99.90
2019-04-05T02:54:39.714Z,99.90
2019-04-05T02:57:10.230Z,99.90
2019-04-05T02:59:38.028Z,99.90
2019-04-05T03:02:05.676Z,99.90
2019-04-05T03:04:33.527Z,99.90
2019-04-05T03:07:03.223Z,99.90
2019-04-05T03:09:30.807Z,99.90
2019-04-05T03:12:00.605Z,99.20
2019-04-05T03:14:29.325Z,99.80
2019-04-05T03:16:56.904Z,99.90
2019-04-05T03:19:28.100Z,99.90
2019-04-05T03:21:56.605Z,99.90
2019-04-05T03:27:09.189Z,99.90
2019-04-05T03:29:36.244Z,99.90
2019-04-05T03:32:02.872Z,99.90
2019-04-05T03:34:29.654Z,99.90
2019-04-05T03:36:56.259Z,99.90
2019-04-05T03:39:23.168Z,99.90
2019-04-05T03:41:50.059Z,99.90
2019-04-05T03:44:16.703Z,99.90
2019-04-05T03:46:56.158Z,99.90
2019-04-05T03:49:11.678Z,99.90
2019-04-05T03:51:38.643Z,99.90
2019-04-05T03:54:05.441Z,99.90
2019-04-05T03:56:33.321Z,99.90
2019-04-05T03:59:00.006Z,99.90
2019-04-05T04:01:26.626Z,99.90
2019-04-05T04:03:53.340Z,99.90
2019-04-05T04:06:20.171Z,99.90
2019-04-05T04:08:47.004Z,99.90
2019-04-05T04:11:14.367Z,99.90
2019-04-05T04:13:41.328Z,99.90
2019-04-05T04:16:07.924Z,99.90
2019-04-05T04:18:34.991Z,99.90
2019-04-05T04:21:01.574Z,99.90
2019-04-05T04:23:28.262Z,99.90
2019-04-05T04:25:54.958Z,99.90
2019-04-05T04:28:21.837Z,99.90
2019-04-05T04:30:48.820Z,99.90
2019-04-05T04:33:15.458Z,99.90
2019-04-05T04:35:42.331Z,99.90
2019-04-05T04:38:09.155Z,99.90
2019-04-05T04:40:35.785Z,99.90
2019-04-05T04:43:02.401Z,99.90
2019-04-05T04:45:30.393Z,99.90
2019-04-05T04:50:30.545Z,99.90
2019-04-05T04:52:57.402Z,99.90
2019-04-05T04:55:24.975Z,99.90
2019-04-05T04:57:51.919Z,99.90
2019-04-05T05:00:18.721Z,99.90
2019-04-05T05:02:45.331Z,99.90
2019-04-05T05:05:11.919Z,99.90
2019-04-05T05:07:38.787Z,99.90
2019-04-05T05:10:05.414Z,99.90
2019-04-05T05:12:32.269Z,99.90
2019-04-05T05:14:58.991Z,99.90
2019-04-05T05:17:37.421Z,99.90
2019-04-05T05:19:53.900Z,99.90
2019-04-05T05:22:20.738Z,99.90
2019-04-05T05:27:19.098Z,99.90
2019-04-05T05:29:45.985Z,99.90
2019-04-05T05:32:12.583Z,99.90
2019-04-05T05:34:39.272Z,99.90
2019-04-05T05:37:06.080Z,99.90
2019-04-05T05:39:33.026Z,99.90
2019-04-05T05:41:59.616Z,99.90
2019-04-05T05:44:26.203Z,99.90
2019-04-05T05:46:53.539Z,99.90
2019-04-05T05:49:21.457Z,99.90
2019-04-05T05:51:49.453Z,99.90
2019-04-05T05:54:16.896Z,99.90
2019-04-05T05:56:43.683Z,99.90
2019-04-05T05:59:11.383Z,99.90
2019-04-05T06:01:38.079Z,99.90
2019-04-05T06:04:05.763Z,99.90
2019-04-05T06:06:33.374Z,99.90
2019-04-05T06:09:00.972Z,99.90
2019-04-05T06:11:27.598Z,99.90
2019-04-05T06:13:54.407Z,99.90
2019-04-05T06:16:21.014Z,99.90
2019-04-05T06:18:48.687Z,99.90
2019-04-05T06:21:15.376Z,96.30
2019-04-05T06:23:42.303Z,94.80
2019-04-05T06:26:16.751Z,93.00
2019-04-05T06:28:43.459Z,92.40
2019-04-05T06:31:10.112Z,92.20
2019-04-05T06:33:36.849Z,90.80
2019-04-05T06:36:03.645Z,90.90
2019-04-05T06:38:30.254Z,89.50
2019-04-05T06:40:56.896Z,89.60
2019-04-05T06:43:23.526Z,89.10
2019-04-05T06:45:50.604Z,88.10
2019-04-05T06:48:19.512Z,87.70
2019-04-05T06:50:47.255Z,88.70
2019-04-05T06:53:13.892Z,87.30
2019-04-05T06:55:41.754Z,86.60
2019-04-05T06:58:10.347Z,85.40
2019-04-05T07:00:36.836Z,86.30
2019-04-05T07:03:04.004Z,85.10
2019-04-05T07:05:30.731Z,85.50
2019-04-05T07:07:57.642Z,84.60
2019-04-05T07:10:24.229Z,84.40
2019-04-05T07:12:50.861Z,84.30
2019-04-05T07:15:17.619Z,83.80
2019-04-05T07:17:44.489Z,84.60
2019-04-05T07:20:11.090Z,83.00
2019-04-05T07:22:39.522Z,84.10
2019-04-05T07:27:53.238Z,84.10
2019-04-05T07:30:20.886Z,89.60
2019-04-05T07:32:47.681Z,91.10
2019-04-05T07:35:15.236Z,93.00
2019-04-05T07:37:42.924Z,93.50
2019-04-05T07:40:10.561Z,92.90
2019-04-05T07:42:37.669Z,93.10
2019-04-05T07:45:04.611Z,93.60
2019-04-05T07:47:32.618Z,95.90
2019-04-05T07:49:59.696Z,95.20
2019-04-05T07:52:27.916Z,95.70
2019-04-05T07:54:54.790Z,95.50
2019-04-05T07:57:21.841Z,97.90
2019-04-05T07:59:48.465Z,99.30
2019-04-05T08:02:16.169Z,98.30
2019-04-05T08:04:42.973Z,97.40
2019-04-05T08:07:10.675Z,99.90
2019-04-05T08:09:38.326Z,98.80
2019-04-05T08:12:05.469Z,99.10
2019-04-05T08:14:33.085Z,99.60
2019-04-05T08:16:59.789Z,99.70
2019-04-05T08:21:59.099Z,96.40
2019-04-05T08:24:27.192Z,99.20
2019-04-05T08:26:54.321Z,98.40
2019-04-05T08:29:24.979Z,99.90
2019-04-05T08:31:53.321Z,99.90
2019-04-05T08:34:20.643Z,99.90
2019-04-05T08:36:48.629Z,96.40
2019-04-05T08:39:16.268Z,95.80
2019-04-05T08:41:44.163Z,94.90
2019-04-05T08:44:31.399Z,95.90
2019-04-05T08:46:58.551Z,96.20
2019-04-05T08:49:26.172Z,95.20
2019-04-05T08:51:53.380Z,96.50
2019-04-05T08:54:32.040Z,95.30
2019-04-05T08:56:49.380Z,95.90
2019-04-05T08:59:17.106Z,95.90
2019-04-05T09:01:44.339Z,96.20
2019-04-05T09:04:11.446Z,97.00
2019-04-05T09:06:39.222Z,95.50
2019-04-05T09:09:07.110Z,94.10
2019-04-05T09:11:35.229Z,95.80
2019-04-05T09:14:03.154Z,94.60
2019-04-05T09:16:29.865Z,95.70
2019-04-05T09:18:57.565Z,94.70
2019-04-05T09:21:24.292Z,94.10
2019-04-05T09:23:59.304Z,94.50
2019-04-05T09:26:26.647Z,96.10
2019-04-05T09:28:57.303Z,95.20
2019-04-05T09:31:25.343Z,96.10
2019-04-05T09:34:11.784Z,94.80
2019-04-05T09:36:38.787Z,94.00
2019-04-05T09:39:14.961Z,94.00
2019-04-05T09:41:39.464Z,93.90
2019-04-05T09:44:10.689Z,94.30
2019-04-05T09:46:46.912Z,94.70
2019-04-05T09:49:07.729Z,94.40
2019-04-05T09:51:42.845Z,93.10
2019-04-05T09:57:11.291Z,93.40
2019-04-05T09:59:42.807Z,93.90
2019-04-05T10:02:12.109Z,93.80
2019-04-05T10:04:40.510Z,93.50
2019-04-05T10:07:12.424Z,93.30
2019-04-05T10:09:43.734Z,92.70
2019-04-05T10:12:11.431Z,92.20
2019-04-05T10:14:42.884Z,91.90
2019-04-05T10:17:12.921Z,91.10
2019-04-05T10:19:49.802Z,90.00
2019-04-05T10:22:09.775Z,90.80
2019-04-05T10:24:40.333Z,91.10
2019-04-05T10:27:10.009Z,90.80
2019-04-05T10:29:41.024Z,90.90
2019-04-05T10:32:10.333Z,92.30
2019-04-05T10:34:39.990Z,91.90
2019-04-05T10:37:07.848Z,93.60
2019-04-05T10:39:47.277Z,94.20
2019-04-05T10:42:18.625Z,93.20
2019-04-05T10:44:56.143Z,94.50
2019-04-05T10:47:25.561Z,96.60
2019-04-05T10:50:03.072Z,95.60
2019-04-05T10:52:25.289Z,96.80
2019-04-05T10:54:53.626Z,97.60
2019-04-05T10:57:24.255Z,98.70
2019-04-05T10:59:51.734Z,99.50
2019-04-05T11:02:19.341Z,99.90
2019-04-05T11:04:47.163Z,99.90
2019-04-05T11:07:16.716Z,99.90
2019-04-05T11:09:44.367Z,99.90
2019-04-05T11:12:16.185Z,99.90
2019-04-05T11:14:50.749Z,99.90
2019-04-05T11:17:17.168Z,99.90
2019-04-05T11:19:50.217Z,99.90
2019-04-05T11:22:20.953Z,99.90
2019-04-05T11:27:33.808Z,99.90
2019-04-05T11:30:01.571Z,99.90
2019-04-05T11:32:29.234Z,99.90
2019-04-05T11:34:56.257Z,99.90
2019-04-05T11:37:22.991Z,99.90
2019-04-05T11:39:51.561Z,99.90
2019-04-05T11:42:19.394Z,99.90
2019-04-05T11:44:47.031Z,99.90
2019-04-05T11:47:13.637Z,99.90
2019-04-05T11:49:40.738Z,99.90
2019-04-05T11:52:07.685Z,99.90
2019-04-05T11:54:35.563Z,99.90
2019-04-05T11:57:03.359Z,99.90
2019-04-05T11:59:31.305Z,99.90
2019-04-05T12:01:58.920Z,99.90
2019-04-05T12:04:25.652Z,99.90
2019-04-05T12:06:52.609Z,99.90
2019-04-05T12:09:19.309Z,99.90
2019-04-05T12:11:46.437Z,99.90
2019-04-05T12:14:13.383Z,99.90
2019-04-05T12:16:39.967Z,99.90
2019-04-05T12:19:06.732Z,99.90
2019-04-05T12:21:34.797Z,99.90
2019-04-05T12:24:02.646Z,99.90
2019-04-05T12:26:30.085Z,99.90
2019-04-05T12:28:56.668Z,99.90
2019-04-05T12:31:23.387Z,99.90
2019-04-05T12:33:52.224Z,99.90
2019-04-05T12:36:22.024Z,99.90
2019-04-05T12:38:47.291Z,99.90
2019-04-05T12:41:14.369Z,99.90
2019-04-05T12:43:43.796Z,99.90
2019-04-05T12:46:10.120Z,99.90
2019-04-05T12:48:37.247Z,99.90
2019-04-05T12:51:05.429Z,99.90
2019-04-05T12:53:33.497Z,99.90
2019-04-05T12:56:01.454Z,99.90
2019-04-05T12:58:29.111Z,99.90
2019-04-05T13:00:57.048Z,99.90
2019-04-05T13:03:24.735Z,99.90
2019-04-05T13:05:52.343Z,99.90
2019-04-05T13:08:20.883Z,99.90
2019-04-05T13:10:48.827Z,99.90
2019-04-05T13:13:15.619Z,99.90
2019-04-05T13:15:43.492Z,99.90
2019-04-05T13:18:10.127Z,99.90
2019-04-05T13:20:38.532Z,99.90
2019-04-05T13:23:06.841Z,99.90
2019-04-05T13:25:35.666Z,99.90
2019-04-05T13:28:12.739Z,99.90
2019-04-05T13:30:30.575Z,99.90
2019-04-05T13:32:57.287Z,99.90
2019-04-05T13:35:24.171Z,99.90
2019-04-05T13:37:50.795Z,99.90
2019-04-05T13:40:17.718Z,99.90
2019-04-05T13:42:45.322Z,99.90
2019-04-05T13:45:12.192Z,99.90
2019-04-05T13:47:39.226Z,99.90
2019-04-05T13:50:10.869Z,99.90
2019-04-05T13:52:36.513Z,99.90
2019-04-05T13:55:03.283Z,99.90
2019-04-05T13:57:30.217Z,99.90
2019-04-05T13:59:56.783Z,99.90
2019-04-05T14:02:23.726Z,99.90
2019-04-05T14:04:53.470Z,99.90
2019-04-05T14:07:19.376Z,99.90
2019-04-05T14:09:45.957Z,99.90
2019-04-05T14:12:12.904Z,99.90
2019-04-05T14:14:41.526Z,99.90
2019-04-05T14:17:08.277Z,99.90
2019-04-05T14:19:35.089Z,99.90
2019-04-05T14:22:08.215Z,99.90
2019-04-05T14:24:30.899Z,99.90
2019-04-05T14:26:57.522Z,99.90
2019-04-05T14:29:24.138Z,99.90
2019-04-05T14:31:51.679Z,99.90
2019-04-05T14:34:18.292Z,99.90
2019-04-05T14:36:45.304Z,99.90
2019-04-05T14:39:12.054Z,99.90
2019-04-05T14:41:38.919Z,99.90
2019-04-05T14:44:06.645Z,99.90
2019-04-05T14:46:33.622Z,99.90
2019-04-05T14:49:01.357Z,99.90
2019-04-05T14:51:28.650Z,99.90
2019-04-05T14:53:56.534Z,99.90
2019-04-05T14:56:24.135Z,99.90
2019-04-05T14:58:50.727Z,99.90
2019-04-05T15:01:18.065Z,99.90
2019-04-05T15:03:45.963Z,99.90
2019-04-05T15:06:12.815Z,99.90
2019-04-05T15:08:40.039Z,99.90
2019-04-05T15:11:06.860Z,99.90
2019-04-05T15:13:34.150Z,99.90
2019-04-05T15:16:01.178Z,99.90
2019-04-05T15:18:27.803Z,99.90
2019-04-05T15:20:54.484Z,99.90
2019-04-05T15:23:21.095Z,99.90
2019-04-05T15:25:49.849Z,99.90
2019-04-05T15:28:16.148Z,99.90
2019-04-05T15:30:43.072Z,99.90
2019-04-05T15:33:09.847Z,99.90
2019-04-05T15:35:37.100Z,99.90
2019-04-05T15:40:48.458Z,99.90
2019-04-05T15:43:15.087Z,99.90
2019-04-05T15:45:42.821Z,99.90
2019-04-05T15:48:09.760Z,99.90
2019-04-05T15:50:36.571Z,99.90
2019-04-05T15:53:03.384Z,99.90
2019-04-05T15:55:33.412Z,99.90
2019-04-05T15:57:58.743Z,99.90
2019-04-05T16:00:26.417Z,99.90
2019-04-05T16:02:54.182Z,99.90
2019-04-05T16:05:21.211Z,99.90
2019-04-05T16:07:49.102Z,99.90
2019-04-05T16:10:16.981Z,99.90
2019-04-05T16:12:44.600Z,99.90
2019-04-05T16:15:12.211Z,99.90
2019-04-05T16:17:40.106Z,99.90
2019-04-05T16:20:07.445Z,99.90
2019-04-05T16:22:35.956Z,99.90
2019-04-05T16:25:03.842Z,99.90
2019-04-05T16:27:31.064Z,99.90
2019-04-05T16:29:58.671Z,99.90
2019-04-05T16:32:26.672Z,99.90
2019-04-05T16:34:53.965Z,99.90
2019-04-05T16:37:21.879Z,99.90
2019-04-05T16:39:48.990Z,99.90
2019-04-05T16:42:16.080Z,99.90
2019-04-05T16:44:43.010Z,99.90
2019-04-05T16:47:10.663Z,99.90
2019-04-05T16:49:37.488Z,99.90
2019-04-05T16:52:05.097Z,99.90
2019-04-05T16:54:31.689Z,99.90
2019-04-05T16:56:58.703Z,99.90
2019-04-05T16:59:26.656Z,99.90
2019-04-05T17:01:56.716Z,99.90
2019-04-05T17:04:22.805Z,99.90
2019-04-05T17:06:50.964Z,99.90
2019-04-05T17:09:18.887Z,99.90
2019-04-05T17:14:31.101Z,99.90
2019-04-05T17:16:58.642Z,99.90
2019-04-05T17:19:26.333Z,99.90
2019-04-05T17:21:57.255Z,99.90
2019-04-05T17:26:56.363Z,99.90
2019-04-05T17:29:23.107Z,99.90
2019-04-05T17:31:51.926Z,99.90
2019-04-05T17:34:19.373Z,99.90
2019-04-05T17:36:47.161Z,99.90
2019-04-05T17:39:20.179Z,99.90
2019-04-05T17:41:45.385Z,99.90
2019-04-05T17:44:29.887Z,99.90
2019-04-05T17:46:58.405Z,99.90
2019-04-05T17:49:26.149Z,99.90
2019-04-05T17:51:55.890Z,99.90
2019-04-05T17:54:30.864Z,99.90
2019-04-05T17:56:53.501Z,99.90
2019-04-05T17:59:21.826Z,99.90
2019-04-05T18:01:54.805Z,99.90
2019-04-05T18:04:21.554Z,99.90
2019-04-05T18:09:37.053Z,99.90
2019-04-05T18:12:11.601Z,99.90
2019-04-05T18:17:23.925Z,99.90
2019-04-05T18:19:51.534Z,99.90
2019-04-05T18:22:20.981Z,99.90
2019-04-05T18:24:51.130Z,99.90
2019-04-05T18:27:21.018Z,99.90
2019-04-05T18:29:50.078Z,99.90
2019-04-05T18:32:19.671Z,99.90
2019-04-05T18:34:47.524Z,99.90
2019-04-05T18:37:18.971Z,99.90
2019-04-05T18:39:46.188Z,99.90
2019-04-05T18:42:17.144Z,99.90
2019-04-05T18:44:48.450Z,99.90
2019-04-05T18:47:15.557Z,99.90
2019-04-05T18:49:43.160Z,99.90
2019-04-05T18:52:11.021Z,99.90
2019-04-05T18:54:39.403Z,99.90
2019-04-05T18:57:07.219Z,99.90
2019-04-05T18:59:35.103Z,99.90
2019-04-05T19:02:04.052Z,99.90
2019-04-05T19:04:35.112Z,99.90
2019-04-05T19:07:12.410Z,99.90
2019-04-05T19:09:40.026Z,99.90
2019-04-05T19:12:07.969Z,99.90
2019-04-05T19:14:35.625Z,99.90
2019-04-05T19:17:02.245Z,99.90
2019-04-05T19:19:29.908Z,99.90
2019-04-05T19:21:57.275Z,99.90
2019-04-05T19:26:56.447Z,99.90
2019-04-05T19:29:23.595Z,99.90
2019-04-05T19:49:35.884Z,99.90
2019-04-05T19:52:04.044Z,99.90
2019-04-05T19:54:32.424Z,99.90
2019-04-05T19:57:00.196Z,99.90
2019-04-05T19:59:27.419Z,99.90
2019-04-05T20:01:58.447Z,99.90
2019-04-05T20:04:23.404Z,99.90
2019-04-05T20:06:58.037Z,99.90
2019-04-05T20:09:18.643Z,99.90
2019-04-05T20:11:45.310Z,99.90
2019-04-05T20:14:12.335Z,99.90
2019-04-05T20:16:39.024Z,99.90
2019-04-05T20:19:05.684Z,99.90
2019-04-05T20:21:32.763Z,99.90
2019-04-05T20:23:59.380Z,99.90
2019-04-05T20:26:26.236Z,99.90
2019-04-05T20:28:52.862Z,99.90
2019-04-05T20:31:19.450Z,99.90
2019-04-05T20:33:46.049Z,99.90
2019-04-05T20:36:13.144Z,99.90
2019-04-05T20:38:39.770Z,99.90
2019-04-05T20:41:06.670Z,99.90
2019-04-05T20:43:33.298Z,99.90
2019-04-05T20:46:01.605Z,99.90
2019-04-05T20:48:28.459Z,99.90
2019-04-05T20:50:55.365Z,99.90
2019-04-05T20:53:22.234Z,99.90
2019-04-05T20:55:48.869Z,99.90
2019-04-05T20:58:15.770Z,99.90
2019-04-05T21:00:42.699Z,99.90
2019-04-05T21:03:10.973Z,99.90
2019-04-05T21:05:37.637Z,99.90
2019-04-05T21:08:04.235Z,99.90
2019-04-05T21:10:30.881Z,99.90
2019-04-05T21:12:57.983Z,99.90
2019-04-05T21:15:24.673Z,99.90
2019-04-05T21:17:51.373Z,99.90
2019-04-05T21:20:19.351Z,99.90
2019-04-05T21:22:49.007Z,99.90
2019-04-05T21:28:00.981Z,99.90
2019-04-05T21:30:27.907Z,99.90
2019-04-05T21:32:54.525Z,99.90
2019-04-05T21:35:21.141Z,99.90
2019-04-05T21:37:47.702Z,99.90
2019-04-05T21:40:14.590Z,99.90
2019-04-05T21:42:41.193Z,99.90
2019-04-05T21:45:07.818Z,99.90
2019-04-05T21:47:34.381Z,99.90
2019-04-05T21:50:01.214Z,99.90
2019-04-05T21:52:27.935Z,99.90
2019-04-05T21:54:54.533Z,99.90
2019-04-05T21:57:21.410Z,99.90
2019-04-05T21:59:48.008Z,99.90
2019-04-05T22:02:14.590Z,99.90
2019-04-05T22:04:41.582Z,99.90
2019-04-05T22:07:08.330Z,99.90
2019-04-05T22:09:34.943Z,99.90
2019-04-05T22:12:01.549Z,99.90
2019-04-05T22:14:28.382Z,99.90
2019-04-05T22:16:55.280Z,99.90
2019-04-05T22:19:21.988Z,99.90
2019-04-05T22:21:48.575Z,99.90
2019-04-05T22:24:15.823Z,99.90
2019-04-05T22:26:42.552Z,99.90
2019-04-05T22:29:09.464Z,99.90
2019-04-05T22:31:36.045Z,99.90
2019-04-05T22:34:02.950Z,99.90
2019-04-05T22:36:29.833Z,99.90
2019-04-05T22:38:56.502Z,99.90
2019-04-05T22:41:23.228Z,99.90
2019-04-05T22:43:50.058Z,99.90
2019-04-05T22:46:17.342Z,99.90
2019-04-05T22:48:43.943Z,99.90
2019-04-05T22:51:11.225Z,99.90
2019-04-05T22:53:37.984Z,99.90
2019-04-05T22:56:04.584Z,99.90
2019-04-05T22:58:31.296Z,99.90
2019-04-05T23:00:57.874Z,99.90
2019-04-05T23:03:25.032Z,99.90
2019-04-05T23:05:51.614Z,99.90
2019-04-05T23:08:18.200Z,99.90
2019-04-05T23:10:48.554Z,99.90
2019-04-05T23:13:15.147Z,99.90
2019-04-05T23:15:41.856Z,99.90
2019-04-05T23:18:08.942Z,99.90
2019-04-05T23:20:35.529Z,99.90
2019-04-05T23:23:02.430Z,99.90
2019-04-05T23:25:31.420Z,99.90
2019-04-05T23:27:58.015Z,99.90
2019-04-05T23:30:25.033Z,99.90
2019-04-05T23:32:51.976Z,99.90
2019-04-05T23:35:19.763Z,99.90
2019-04-05T23:37:46.612Z,99.90
2019-04-05T23:40:13.252Z,99.90
2019-04-05T23:42:40.216Z,99.90
2019-04-05T23:45:07.064Z,99.90
2019-04-05T23:47:34.077Z,99.90
2019-04-05T23:50:01.112Z,99.90
2019-04-05T23:52:28.058Z,99.90
2019-04-05T23:54:54.898Z,99.90
2019-04-05T23:57:21.762Z,99.90
2019-04-05T23:59:48.390Z,99.90
